createdAt,value
2022-10-17T00:00:31.039Z,13.80
2022-10-17T00:02:58.047Z,13.80
2022-10-17T00:05:25.081Z,13.80
2022-10-17T00:07:53.073Z,13.80
2022-10-17T00:10:20.668Z,13.80
2022-10-17T00:12:47.339Z,13.90
2022-10-17T00:15:19.261Z,13.90
2022-10-17T00:17:45.906Z,13.80
2022-10-17T00:20:13.189Z,13.80
2022-10-17T00:22:39.956Z,13.80
2022-10-17T00:25:06.965Z,13.80
2022-10-17T00:27:38.153Z,13.90
2022-10-17T00:30:06.531Z,13.90
2022-10-17T00:32:33.457Z,13.70
2022-10-17T00:35:00.227Z,13.60
2022-10-17T00:37:27.084Z,13.60
2022-10-17T00:39:54.418Z,13.60
2022-10-17T00:42:21.922Z,13.40
2022-10-17T00:44:48.520Z,13.30
2022-10-17T00:47:19.709Z,13.30
2022-10-17T00:49:47.297Z,13.30
2022-10-17T00:52:21.255Z,13.40
2022-10-17T00:54:53.604Z,13.40
2022-10-17T00:57:20.477Z,13.30
2022-10-17T00:59:51.450Z,13.20
2022-10-17T01:02:20.448Z,12.90
2022-10-17T01:04:50.358Z,12.70
2022-10-17T01:07:17.662Z,12.70
2022-10-17T01:09:46.957Z,12.80
2022-10-17T01:12:25.676Z,12.90
2022-10-17T01:14:58.045Z,13.00
2022-10-17T01:17:58.563Z,13.10
2022-10-17T01:20:47.041Z,13.10
2022-10-17T01:23:32.396Z,12.90
2022-10-17T01:26:24.973Z,12.50
2022-10-17T01:29:19.970Z,12.50
2022-10-17T01:31:48.740Z,12.40
2022-10-17T01:34:26.410Z,12.30
2022-10-17T01:37:48.643Z,12.30
2022-10-17T01:40:34.460Z,12.20
2022-10-17T01:43:08.764Z,12.30
2022-10-17T01:45:47.572Z,12.20
2022-10-17T01:48:22.122Z,12.20
2022-10-17T01:50:53.436Z,12.20
2022-10-17T01:53:34.401Z,12.30
2022-10-17T01:56:04.514Z,12.30
2022-10-17T01:58:40.338Z,12.30
2022-10-17T02:01:09.694Z,12.30
2022-10-17T02:03:37.053Z,12.30
2022-10-17T02:06:03.983Z,12.20
2022-10-17T02:08:42.694Z,12.10
2022-10-17T02:11:33.480Z,12.10
2022-10-17T02:14:38.212Z,12.20
2022-10-17T02:17:16.543Z,12.20
2022-10-17T02:19:43.165Z,12.20
2022-10-17T02:22:15.626Z,12.30
2022-10-17T02:24:47.080Z,12.30
2022-10-17T02:27:33.348Z,12.20
2022-10-17T02:30:09.934Z,12.10
2022-10-17T02:32:36.838Z,12.00
2022-10-17T02:35:07.426Z,12.00
2022-10-17T02:37:35.803Z,12.00
2022-10-17T02:40:03.775Z,12.00
2022-10-17T02:42:32.026Z,11.90
2022-10-17T02:45:03.382Z,11.80
2022-10-17T02:47:36.369Z,11.70
2022-10-17T02:50:04.148Z,11.60
2022-10-17T02:52:51.051Z,11.60
2022-10-17T02:55:23.282Z,11.50
2022-10-17T02:57:56.063Z,11.50
2022-10-17T03:00:25.137Z,11.50
2022-10-17T03:02:53.617Z,11.50
2022-10-17T03:05:25.693Z,11.60
2022-10-17T03:07:54.225Z,11.60
2022-10-17T03:10:22.193Z,11.50
2022-10-17T03:12:49.344Z,11.40
2022-10-17T03:15:16.256Z,11.40
2022-10-17T03:17:43.054Z,11.40
2022-10-17T03:20:10.141Z,11.40
2022-10-17T03:22:36.929Z,11.50
2022-10-17T03:25:03.781Z,11.60
2022-10-17T03:27:30.682Z,11.60
2022-10-17T03:29:57.658Z,11.70
2022-10-17T03:32:24.355Z,11.80
2022-10-17T03:34:50.971Z,11.80
2022-10-17T03:37:17.807Z,11.80
2022-10-17T03:39:44.470Z,11.60
2022-10-17T03:42:11.146Z,11.40
2022-10-17T03:44:37.835Z,11.30
2022-10-17T03:47:04.466Z,11.30
2022-10-17T03:49:31.165Z,11.40
2022-10-17T03:51:57.842Z,11.40
2022-10-17T03:54:24.573Z,11.40
2022-10-17T03:56:51.289Z,11.40
2022-10-17T03:59:18.061Z,11.40
2022-10-17T04:01:44.825Z,11.50
2022-10-17T04:04:11.580Z,11.60
2022-10-17T04:06:38.306Z,11.60
2022-10-17T04:09:06.509Z,11.60
2022-10-17T04:11:33.588Z,11.60
2022-10-17T04:14:00.367Z,11.60
2022-10-17T04:16:27.633Z,11.70
2022-10-17T04:18:56.870Z,11.70
2022-10-17T04:21:25.112Z,11.70
2022-10-17T04:23:57.114Z,11.60
2022-10-17T04:26:24.117Z,11.60
2022-10-17T04:28:51.111Z,11.60
2022-10-17T04:31:18.760Z,11.50
2022-10-17T04:33:49.972Z,11.50
2022-10-17T04:36:19.004Z,11.40
2022-10-17T04:38:46.143Z,11.10
2022-10-17T04:41:16.076Z,11.10
2022-10-17T04:43:45.548Z,11.10
2022-10-17T04:46:16.015Z,11.10
2022-10-17T04:48:43.054Z,11.20
2022-10-17T04:51:15.155Z,11.20
2022-10-17T04:53:42.917Z,11.20
2022-10-17T04:56:20.854Z,11.10
2022-10-17T04:58:48.275Z,11.20
2022-10-17T05:01:21.155Z,11.20
2022-10-17T05:03:48.217Z,11.20
2022-10-17T05:06:21.033Z,11.30
2022-10-17T05:08:48.444Z,11.30
2022-10-17T05:11:29.153Z,11.20
2022-10-17T05:13:58.289Z,10.90
2022-10-17T05:16:25.751Z,10.80
2022-10-17T05:18:55.385Z,10.80
2022-10-17T05:21:23.714Z,10.90
2022-10-17T05:23:51.165Z,11.00
2022-10-17T05:26:18.553Z,11.00
2022-10-17T05:28:45.329Z,11.00
2022-10-17T05:31:12.652Z,11.00
2022-10-17T05:33:39.774Z,11.00
2022-10-17T05:36:07.452Z,11.00
2022-10-17T05:38:34.444Z,10.80
2022-10-17T05:41:02.647Z,10.70
2022-10-17T05:43:29.966Z,10.70
2022-10-17T05:45:56.684Z,10.70
2022-10-17T05:48:24.055Z,10.70
2022-10-17T05:50:57.137Z,10.70
2022-10-17T05:53:23.797Z,10.70
2022-10-17T05:56:01.580Z,10.70
2022-10-17T06:01:15.692Z,10.80
2022-10-17T06:03:42.456Z,10.70
2022-10-17T06:06:12.018Z,10.80
2022-10-17T06:08:39.341Z,10.80
2022-10-17T06:11:09.166Z,10.90
2022-10-17T06:13:38.377Z,10.80
2022-10-17T06:16:05.747Z,10.80
2022-10-17T06:18:32.531Z,10.80
2022-10-17T06:21:09.088Z,10.90
2022-10-17T06:23:35.830Z,10.90
2022-10-17T06:26:04.721Z,10.90
2022-10-17T06:28:31.623Z,10.90
2022-10-17T06:30:58.351Z,11.00
2022-10-17T06:33:25.139Z,11.00
2022-10-17T06:35:56.136Z,11.00
2022-10-17T06:38:23.410Z,11.10
2022-10-17T06:40:50.068Z,11.00
2022-10-17T06:43:16.801Z,11.10
2022-10-17T06:45:45.663Z,11.10
2022-10-17T06:48:12.319Z,11.10
2022-10-17T06:50:39.064Z,11.10
2022-10-17T06:53:05.872Z,11.20
2022-10-17T06:55:32.917Z,11.40
2022-10-17T06:57:59.536Z,11.50
2022-10-17T07:00:26.848Z,11.50
2022-10-17T07:02:53.522Z,11.70
2022-10-17T07:05:20.190Z,12.10
2022-10-17T07:07:48.547Z,12.30
2022-10-17T07:10:18.477Z,12.60
2022-10-17T07:12:45.861Z,13.00
2022-10-17T07:15:13.033Z,13.50
2022-10-17T07:17:39.730Z,13.80
2022-10-17T07:20:06.946Z,14.00
2022-10-17T07:22:33.597Z,14.20
2022-10-17T07:25:00.243Z,14.30
2022-10-17T07:27:27.215Z,14.50
2022-10-17T07:29:54.117Z,14.80
2022-10-17T07:32:20.786Z,15.10
2022-10-17T07:34:47.440Z,15.30
2022-10-17T07:37:14.064Z,15.40
2022-10-17T07:39:40.725Z,15.40
2022-10-17T07:42:07.763Z,15.60
2022-10-17T07:44:35.507Z,15.90
2022-10-17T07:47:02.353Z,16.40
2022-10-17T07:49:29.398Z,16.60
2022-10-17T07:51:56.285Z,16.70
2022-10-17T07:54:22.988Z,16.40
2022-10-17T07:56:50.676Z,16.50
2022-10-17T07:59:20.509Z,16.50
2022-10-17T08:01:47.182Z,16.80
2022-10-17T08:04:13.917Z,17.00
2022-10-17T08:06:40.581Z,17.40
2022-10-17T08:09:07.260Z,17.60
2022-10-17T08:11:35.916Z,17.70
2022-10-17T08:14:02.672Z,18.00
2022-10-17T08:16:29.496Z,18.10
2022-10-17T08:18:56.183Z,18.10
2022-10-17T08:21:23.006Z,18.10
2022-10-17T08:23:49.665Z,18.30
2022-10-17T08:26:17.245Z,18.50
2022-10-17T08:28:44.363Z,18.30
2022-10-17T08:31:14.190Z,18.40
2022-10-17T08:33:41.873Z,18.60
2022-10-17T08:36:09.493Z,18.90
2022-10-17T08:38:38.520Z,19.00
2022-10-17T08:41:19.362Z,19.20
2022-10-17T08:44:05.757Z,19.40
2022-10-17T08:46:38.088Z,19.70
2022-10-17T08:49:15.087Z,19.80
2022-10-17T08:51:51.451Z,19.90
2022-10-17T08:54:31.635Z,19.70
2022-10-17T08:56:58.481Z,19.80
2022-10-17T08:59:30.310Z,20.00
2022-10-17T09:02:08.809Z,20.10
2022-10-17T09:04:50.130Z,20.20
2022-10-17T09:07:43.554Z,20.30
2022-10-17T09:10:10.328Z,20.50
2022-10-17T09:13:07.816Z,20.60
2022-10-17T09:15:53.131Z,20.60
2022-10-17T09:18:28.274Z,20.70
2022-10-17T09:20:58.169Z,20.70
2022-10-17T09:23:41.763Z,20.70
2022-10-17T09:26:11.145Z,20.70
2022-10-17T09:28:41.483Z,20.80
2022-10-17T09:31:23.035Z,20.80
2022-10-17T09:33:54.574Z,20.70
2022-10-17T09:36:34.301Z,20.40
2022-10-17T09:39:17.805Z,20.30
2022-10-17T09:41:55.706Z,20.30
2022-10-17T09:44:22.484Z,20.40
2022-10-17T09:47:05.055Z,20.60
2022-10-17T09:49:42.642Z,20.90
2022-10-17T09:52:18.211Z,21.00
2022-10-17T09:54:49.732Z,20.80
2022-10-17T09:57:18.019Z,21.00
2022-10-17T09:59:59.959Z,21.20
2022-10-17T10:02:30.040Z,21.30
2022-10-17T10:05:04.643Z,21.30
2022-10-17T10:07:37.925Z,21.40
2022-10-17T10:10:07.958Z,21.60
2022-10-17T10:12:38.731Z,21.40
2022-10-17T10:15:38.956Z,21.50
2022-10-17T10:18:33.795Z,21.50
2022-10-17T10:21:07.960Z,21.50
2022-10-17T10:23:35.957Z,21.70
2022-10-17T10:26:05.652Z,21.90
2022-10-17T10:28:35.490Z,21.90
2022-10-17T10:31:08.350Z,22.00
2022-10-17T10:33:41.676Z,22.00
2022-10-17T10:36:09.710Z,22.20
2022-10-17T10:38:40.898Z,22.20
2022-10-17T10:41:10.340Z,22.20
2022-10-17T10:43:43.886Z,22.30
2022-10-17T10:46:26.677Z,22.40
2022-10-17T10:48:59.770Z,22.40
2022-10-17T10:51:41.286Z,22.40
2022-10-17T10:54:28.677Z,22.40
2022-10-17T10:56:59.985Z,22.70
2022-10-17T10:59:39.519Z,22.90
2022-10-17T11:02:15.714Z,23.00
2022-10-17T11:04:54.868Z,23.10
2022-10-17T11:07:29.617Z,23.10
2022-10-17T11:10:18.162Z,23.20
2022-10-17T11:13:07.676Z,23.00
2022-10-17T11:15:50.440Z,23.00
2022-10-17T11:18:30.281Z,23.10
2022-10-17T11:21:15.074Z,23.20
2022-10-17T11:23:53.331Z,23.40
2022-10-17T11:26:26.838Z,23.70
2022-10-17T11:28:54.903Z,23.80
2022-10-17T11:31:25.225Z,24.00
2022-10-17T11:34:00.672Z,24.20
2022-10-17T11:36:37.873Z,24.40
2022-10-17T11:39:28.083Z,24.60
2022-10-17T11:42:03.448Z,24.70
2022-10-17T11:44:39.197Z,24.80
2022-10-17T11:47:37.423Z,24.90
2022-10-17T11:53:16.628Z,25.00
2022-10-17T11:55:44.353Z,24.90
2022-10-17T11:59:06.197Z,24.90
2022-10-17T12:01:42.069Z,25.00
2022-10-17T12:04:27.034Z,24.80
2022-10-17T12:07:06.109Z,25.10
2022-10-17T12:09:38.576Z,25.20
2022-10-17T12:12:05.760Z,25.50
2022-10-17T12:14:42.744Z,25.70
2022-10-17T12:17:30.632Z,25.80
2022-10-17T12:20:28.616Z,25.70
2022-10-17T12:23:04.218Z,25.70
2022-10-17T12:28:32.627Z,26.00
2022-10-17T12:31:08.649Z,26.00
2022-10-17T12:33:49.443Z,26.00
2022-10-17T12:36:18.980Z,26.00
2022-10-17T12:38:50.856Z,26.10
2022-10-17T12:41:40.281Z,26.20
2022-10-17T12:44:13.109Z,26.20
2022-10-17T12:46:54.276Z,26.40
2022-10-17T12:49:36.159Z,26.50
2022-10-17T12:52:14.858Z,26.40
2022-10-17T12:54:53.584Z,26.50
2022-10-17T12:57:57.524Z,26.60
2022-10-17T13:00:33.295Z,26.70
2022-10-17T13:03:14.648Z,26.50
2022-10-17T13:05:45.686Z,26.50
2022-10-17T13:08:22.494Z,26.50
2022-10-17T13:10:52.535Z,26.90
2022-10-17T13:13:21.337Z,27.20
2022-10-17T13:15:53.822Z,27.00
2022-10-17T13:18:28.456Z,26.70
2022-10-17T13:21:00.825Z,25.90
2022-10-17T13:23:32.273Z,25.50
2022-10-17T13:26:23.530Z,25.80
2022-10-17T13:29:06.859Z,26.00
2022-10-17T13:31:39.662Z,26.50
2022-10-17T13:34:16.334Z,26.80
2022-10-17T13:36:48.754Z,27.20
2022-10-17T13:39:23.187Z,27.00
2022-10-17T13:41:56.770Z,27.20
2022-10-17T13:44:26.421Z,27.30
2022-10-17T13:46:53.560Z,27.20
2022-10-17T13:49:43.005Z,27.20
2022-10-17T13:52:25.397Z,27.30
2022-10-17T13:54:53.768Z,26.70
2022-10-17T13:57:21.510Z,26.30
2022-10-17T13:59:57.315Z,26.30
2022-10-17T14:02:27.611Z,26.40
2022-10-17T14:05:22.956Z,26.40
2022-10-17T14:08:11.472Z,26.40
2022-10-17T14:10:41.543Z,26.20
2022-10-17T14:13:19.802Z,26.30
2022-10-17T14:15:47.073Z,26.30
2022-10-17T14:18:24.923Z,26.40
2022-10-17T14:23:43.936Z,25.80
2022-10-17T14:26:14.229Z,25.80
2022-10-17T14:28:43.575Z,25.90
2022-10-17T14:31:21.218Z,25.80
2022-10-17T14:33:51.022Z,25.90
2022-10-17T14:36:19.275Z,25.80
2022-10-17T14:38:52.220Z,25.80
2022-10-17T14:44:38.380Z,25.90
2022-10-17T14:47:30.840Z,26.20
2022-10-17T14:50:28.419Z,26.10
2022-10-17T14:53:22.722Z,26.00
2022-10-17T14:56:05.885Z,25.90
2022-10-17T14:58:33.796Z,25.90
2022-10-17T15:01:01.858Z,25.80
2022-10-17T15:03:29.011Z,26.00
2022-10-17T15:05:56.033Z,25.90
2022-10-17T15:08:24.217Z,25.70
2022-10-17T15:10:51.814Z,25.30
2022-10-17T15:13:41.107Z,25.00
2022-10-17T15:16:23.706Z,25.00
2022-10-17T15:18:51.385Z,24.80
2022-10-17T15:21:33.738Z,24.60
2022-10-17T15:24:05.777Z,24.50
2022-10-17T15:26:34.298Z,24.40
2022-10-17T15:29:01.432Z,24.30
2022-10-17T15:31:31.303Z,24.20
2022-10-17T15:33:58.157Z,24.10
2022-10-17T15:36:30.541Z,23.90
2022-10-17T15:39:01.165Z,23.60
2022-10-17T15:41:30.413Z,23.30
2022-10-17T15:43:57.173Z,22.90
2022-10-17T15:46:29.448Z,22.50
2022-10-17T15:49:01.124Z,22.20
2022-10-17T15:51:27.837Z,22.00
2022-10-17T15:53:54.513Z,21.70
2022-10-17T15:56:30.577Z,21.50
2022-10-17T15:58:58.157Z,21.30
2022-10-17T16:01:30.791Z,21.10
2022-10-17T16:03:57.660Z,20.90
2022-10-17T16:06:25.201Z,20.70
2022-10-17T16:08:52.348Z,20.60
2022-10-17T16:11:32.512Z,20.50
2022-10-17T16:14:07.497Z,20.30
2022-10-17T16:16:34.711Z,20.20
2022-10-17T16:19:02.342Z,20.00
2022-10-17T16:21:32.600Z,19.90
2022-10-17T16:24:00.507Z,19.80
2022-10-17T16:26:28.258Z,19.70
2022-10-17T16:28:56.011Z,19.60
2022-10-17T16:31:26.534Z,19.60
2022-10-17T16:33:54.672Z,19.40
2022-10-17T16:36:21.812Z,19.30
2022-10-17T16:38:49.733Z,19.30
2022-10-17T16:41:28.488Z,19.20
2022-10-17T16:43:57.940Z,19.10
2022-10-17T16:46:26.037Z,19.00
2022-10-17T16:48:53.294Z,18.90
2022-10-17T16:51:21.171Z,18.90
2022-10-17T16:53:50.406Z,18.70
2022-10-17T16:56:19.475Z,18.60
2022-10-17T16:58:46.970Z,18.50
2022-10-17T17:01:17.908Z,18.50
2022-10-17T17:03:46.011Z,18.50
2022-10-17T17:06:17.189Z,18.40
2022-10-17T17:08:45.264Z,18.30
2022-10-17T17:11:14.178Z,18.20
2022-10-17T17:13:41.367Z,18.10
2022-10-17T17:16:21.349Z,18.10
2022-10-17T17:18:50.783Z,18.10
2022-10-17T17:21:17.524Z,18.00
2022-10-17T17:23:44.241Z,18.00
2022-10-17T17:26:16.511Z,18.00
2022-10-17T17:28:43.867Z,17.90
2022-10-17T17:31:20.032Z,17.80
2022-10-17T17:33:47.036Z,17.80
2022-10-17T17:36:20.445Z,17.70
2022-10-17T17:38:48.523Z,17.60
2022-10-17T17:41:17.626Z,17.50
2022-10-17T17:43:46.042Z,17.40
2022-10-17T17:46:14.490Z,17.40
2022-10-17T17:48:42.443Z,17.30
2022-10-17T17:51:14.312Z,17.20
2022-10-17T17:53:41.143Z,17.20
2022-10-17T17:56:11.224Z,17.10
2022-10-17T17:58:38.075Z,17.00
2022-10-17T18:01:14.981Z,16.90
2022-10-17T18:03:41.897Z,16.90
2022-10-17T18:06:09.084Z,16.90
2022-10-17T18:08:36.377Z,16.90
2022-10-17T18:11:03.422Z,16.80
2022-10-17T18:13:30.187Z,16.80
2022-10-17T18:16:01.511Z,16.80
2022-10-17T18:18:29.696Z,16.70
2022-10-17T18:20:56.667Z,16.60
2022-10-17T18:23:23.710Z,16.40
2022-10-17T18:26:01.042Z,16.30
2022-10-17T18:28:27.965Z,16.20
2022-10-17T18:30:54.930Z,16.20
2022-10-17T18:33:22.089Z,16.20
2022-10-17T18:35:48.875Z,16.20
2022-10-17T18:38:15.547Z,16.20
2022-10-17T18:40:43.410Z,16.10
2022-10-17T18:43:11.787Z,16.00
2022-10-17T18:45:38.437Z,15.90
2022-10-17T18:48:05.350Z,15.80
2022-10-17T18:50:32.230Z,15.70
2022-10-17T18:52:59.245Z,15.50
2022-10-17T18:55:25.888Z,15.50
2022-10-17T18:57:53.130Z,15.60
2022-10-17T19:00:19.796Z,15.60
2022-10-17T19:02:46.450Z,15.60
2022-10-17T19:05:13.080Z,15.50
2022-10-17T19:07:39.717Z,15.50
2022-10-17T19:10:06.655Z,15.60
2022-10-17T19:12:33.327Z,15.50
2022-10-17T19:15:00.015Z,15.40
2022-10-17T19:17:26.878Z,15.40
2022-10-17T19:19:55.153Z,15.30
2022-10-17T19:22:21.851Z,15.20
2022-10-17T19:24:48.560Z,15.10
2022-10-17T19:27:15.276Z,15.10
2022-10-17T19:29:43.922Z,15.00
2022-10-17T19:32:15.659Z,15.00
2022-10-17T19:34:44.814Z,15.00
2022-10-17T19:37:11.639Z,15.00
2022-10-17T19:39:38.374Z,15.10
2022-10-17T19:42:06.908Z,15.10
2022-10-17T19:44:34.481Z,15.10
2022-10-17T19:47:01.146Z,15.10
2022-10-17T19:49:28.094Z,14.90
2022-10-17T19:51:54.746Z,14.70
2022-10-17T19:54:21.394Z,14.70
2022-10-17T19:56:48.320Z,14.60
2022-10-17T19:59:16.833Z,14.60
2022-10-17T20:01:43.828Z,14.60
2022-10-17T20:04:11.609Z,14.40
2022-10-17T20:06:39.472Z,14.40
2022-10-17T20:09:08.001Z,14.40
2022-10-17T20:11:36.554Z,14.30
2022-10-17T20:14:03.232Z,14.30
2022-10-17T20:16:33.980Z,14.30
2022-10-17T20:19:06.770Z,14.30
2022-10-17T20:21:36.514Z,14.20
2022-10-17T20:24:06.394Z,14.30
2022-10-17T20:26:38.966Z,14.20
2022-10-17T20:29:11.786Z,14.20
2022-10-17T20:31:39.980Z,14.20
2022-10-17T20:34:06.749Z,14.30
2022-10-17T20:36:36.880Z,14.30
2022-10-17T20:39:05.532Z,14.30
2022-10-17T20:41:32.252Z,14.40
2022-10-17T20:43:58.929Z,14.40
2022-10-17T20:46:45.221Z,14.50
2022-10-17T20:49:16.087Z,14.50
2022-10-17T20:51:43.458Z,14.50
2022-10-17T20:54:11.623Z,14.50
2022-10-17T20:56:38.676Z,14.40
2022-10-17T20:59:07.828Z,14.40
2022-10-17T21:01:36.080Z,14.50
2022-10-17T21:04:26.958Z,14.40
2022-10-17T21:06:52.046Z,14.40
2022-10-17T21:09:19.211Z,14.30
2022-10-17T21:11:46.049Z,14.30
2022-10-17T21:14:12.821Z,14.20
2022-10-17T21:16:40.197Z,14.10
2022-10-17T21:19:07.113Z,14.00
2022-10-17T21:21:36.419Z,13.90
2022-10-17T21:24:05.868Z,13.80
2022-10-17T21:26:34.336Z,13.80
2022-10-17T21:29:05.797Z,13.60
2022-10-17T21:31:37.933Z,13.60
2022-10-17T21:34:18.274Z,13.60
2022-10-17T21:36:45.440Z,13.70
2022-10-17T21:39:13.250Z,13.80
2022-10-17T21:41:40.232Z,13.80
2022-10-17T21:44:11.301Z,13.90
2022-10-17T21:46:38.104Z,14.00
2022-10-17T21:49:04.783Z,14.00
2022-10-17T21:51:31.424Z,13.90
2022-10-17T21:53:58.290Z,13.80
2022-10-17T21:56:30.746Z,13.70
2022-10-17T21:58:58.706Z,13.60
2022-10-17T22:01:28.336Z,13.60
2022-10-17T22:03:58.317Z,13.60
2022-10-17T22:06:42.968Z,13.70
2022-10-17T22:09:14.633Z,13.70
2022-10-17T22:11:43.832Z,13.70
2022-10-17T22:14:14.021Z,13.80
2022-10-17T22:16:41.211Z,13.80
2022-10-17T22:19:08.740Z,13.60
2022-10-17T22:21:37.488Z,13.50
2022-10-17T22:24:07.077Z,13.50
2022-10-17T22:26:36.178Z,13.60
2022-10-17T22:29:04.728Z,13.60
2022-10-17T22:31:31.758Z,13.50
2022-10-17T22:33:58.457Z,13.40
2022-10-17T22:36:25.542Z,13.50
2022-10-17T22:38:52.345Z,13.50
2022-10-17T22:41:19.215Z,13.50
2022-10-17T22:43:45.893Z,13.50
2022-10-17T22:46:14.078Z,13.50
2022-10-17T22:48:40.885Z,13.50
2022-10-17T22:51:08.432Z,13.60
2022-10-17T22:53:37.221Z,13.70
2022-10-17T22:56:07.145Z,13.60
2022-10-17T22:58:35.215Z,13.60
2022-10-17T23:01:03.148Z,13.50
2022-10-17T23:03:31.552Z,13.40
2022-10-17T23:05:58.661Z,13.40
2022-10-17T23:08:26.005Z,13.50
2022-10-17T23:10:53.726Z,13.40
2022-10-17T23:13:21.874Z,13.40
2022-10-17T23:15:53.188Z,13.30
2022-10-17T23:18:20.939Z,13.30
2022-10-17T23:20:48.100Z,13.20
2022-10-17T23:23:15.158Z,13.00
2022-10-17T23:25:42.100Z,12.90
2022-10-17T23:28:10.107Z,12.90
2022-10-17T23:30:37.729Z,12.90
2022-10-17T23:33:04.865Z,12.90
2022-10-17T23:35:31.805Z,12.90
2022-10-17T23:37:58.598Z,12.80
2022-10-17T23:40:25.364Z,12.70
2022-10-17T23:42:51.995Z,12.70
2022-10-17T23:45:18.789Z,12.60
2022-10-17T23:47:45.491Z,12.50
2022-10-17T23:50:12.446Z,12.70
2022-10-17T23:52:39.285Z,12.70
2022-10-17T23:55:06.640Z,12.60
2022-10-17T23:57:33.715Z,12.60
